createdAt,value
2018-11-02T00:00:56.536Z,7.23
2018-11-02T00:03:25.622Z,6.97
2018-11-02T00:05:55.250Z,7.20
2018-11-02T00:08:24.553Z,6.73
2018-11-02T00:10:53.523Z,6.40
2018-11-02T00:13:23.060Z,6.50
2018-11-02T00:15:52.127Z,7.10
2018-11-02T00:18:21.583Z,7.57
2018-11-02T00:20:50.667Z,7.47
2018-11-02T00:23:20.319Z,6.87
2018-11-02T00:25:49.957Z,7.20
2018-11-02T00:28:20.696Z,7.20
2018-11-02T00:30:49.802Z,6.63
2018-11-02T00:33:19.272Z,6.67
2018-11-02T00:35:48.411Z,6.47
2018-11-02T00:38:17.685Z,6.30
2018-11-02T00:40:47.184Z,7.27
2018-11-02T00:43:16.621Z,6.50
2018-11-02T00:45:45.594Z,6.97
2018-11-02T00:48:15.228Z,6.00
2018-11-02T00:50:44.428Z,6.03
2018-11-02T00:53:14.131Z,6.33
2018-11-02T00:55:43.717Z,6.07
2018-11-02T00:58:13.325Z,5.50
2018-11-02T01:00:42.648Z,6.27
2018-11-02T01:03:12.536Z,5.83
2018-11-02T01:05:41.973Z,5.73
2018-11-02T01:08:11.108Z,5.80
2018-11-02T01:10:40.861Z,5.93
2018-11-02T01:13:10.008Z,5.67
2018-11-02T01:15:38.973Z,5.57
2018-11-02T01:18:08.060Z,5.10
2018-11-02T01:20:37.697Z,5.43
2018-11-02T01:23:07.269Z,5.13
2018-11-02T01:25:36.480Z,5.53
2018-11-02T01:28:06.345Z,5.83
2018-11-02T01:30:35.997Z,5.10
2018-11-02T01:33:05.603Z,5.47
2018-11-02T01:35:34.680Z,5.05
2018-11-02T01:38:04.305Z,4.80
2018-11-02T01:40:33.609Z,4.70
2018-11-02T01:43:03.092Z,5.47
2018-11-02T01:45:32.235Z,4.60
2018-11-02T01:48:01.405Z,5.37
2018-11-02T01:50:30.710Z,4.90
2018-11-02T01:52:59.812Z,5.03
2018-11-02T01:55:29.041Z,4.83
2018-11-02T01:57:58.015Z,4.60
2018-11-02T02:00:27.406Z,4.57
2018-11-02T02:02:56.536Z,4.63
2018-11-02T02:05:25.680Z,3.80
2018-11-02T02:07:54.703Z,5.47
2018-11-02T02:10:23.901Z,4.17
2018-11-02T02:12:52.976Z,3.47
2018-11-02T02:15:21.992Z,4.17
2018-11-02T02:17:50.964Z,3.57
2018-11-02T02:20:21.094Z,3.13
2018-11-02T02:22:50.995Z,3.50
2018-11-02T02:25:20.904Z,3.77
2018-11-02T02:27:50.624Z,3.30
2018-11-02T02:30:19.860Z,3.10
2018-11-02T02:32:48.848Z,2.90
2018-11-02T02:35:17.837Z,3.43
2018-11-02T02:37:46.833Z,2.60
2018-11-02T02:40:15.824Z,2.47
2018-11-02T02:42:45.202Z,2.40
2018-11-02T02:45:14.193Z,2.20
2018-11-02T02:47:43.733Z,2.10
2018-11-02T02:50:13.688Z,2.20
2018-11-02T02:52:44.561Z,2.33
2018-11-02T02:55:13.506Z,2.13
2018-11-02T02:57:42.584Z,2.47
2018-11-02T03:00:13.904Z,3.00
2018-11-02T03:02:43.734Z,2.23
2018-11-02T03:05:12.877Z,2.15
2018-11-02T03:07:42.384Z,2.07
2018-11-02T03:10:11.486Z,1.83
2018-11-02T03:12:40.524Z,1.90
2018-11-02T03:15:10.071Z,2.00
2018-11-02T03:17:39.737Z,2.12
2018-11-02T03:20:09.841Z,2.63
2018-11-02T03:22:39.211Z,2.00
2018-11-02T03:25:08.573Z,1.97
2018-11-02T03:27:37.552Z,2.20
2018-11-02T03:30:08.393Z,1.90
2018-11-02T03:32:37.727Z,1.82
2018-11-02T03:35:07.969Z,1.90
2018-11-02T03:37:37.272Z,2.00
2018-11-02T03:40:06.778Z,1.47
2018-11-02T03:42:35.744Z,1.90
2018-11-02T03:45:05.737Z,2.30
2018-11-02T03:47:35.313Z,1.20
2018-11-02T03:50:04.976Z,1.63
2018-11-02T03:52:34.240Z,1.70
2018-11-02T03:55:04.158Z,2.10
2018-11-02T03:57:33.153Z,2.35
2018-11-02T04:00:02.159Z,2.07
2018-11-02T04:02:31.172Z,2.57
2018-11-02T04:05:00.373Z,2.07
2018-11-02T04:07:29.453Z,2.33
2018-11-02T04:09:59.771Z,2.55
2018-11-02T04:12:28.872Z,2.70
2018-11-02T04:14:58.974Z,2.70
2018-11-02T04:17:28.120Z,2.62
2018-11-02T04:19:57.561Z,2.03
2018-11-02T04:22:26.781Z,2.17
2018-11-02T04:24:56.410Z,2.20
2018-11-02T04:27:26.305Z,2.37
2018-11-02T04:29:55.810Z,2.30
2018-11-02T04:32:24.911Z,2.17
2018-11-02T04:34:53.808Z,2.17
2018-11-02T04:37:22.648Z,2.10
2018-11-02T04:39:51.884Z,2.13
2018-11-02T04:42:20.744Z,2.20
2018-11-02T04:44:49.800Z,2.50
2018-11-02T04:47:19.480Z,2.20
2018-11-02T04:49:48.389Z,2.33
2018-11-02T04:52:17.499Z,2.13
2018-11-02T04:54:46.490Z,2.50
2018-11-02T04:57:16.076Z,1.90
2018-11-02T04:59:45.093Z,2.43
2018-11-02T05:02:14.072Z,2.60
2018-11-02T05:04:43.373Z,2.67
2018-11-02T05:07:12.688Z,2.20
2018-11-02T05:09:41.696Z,1.97
2018-11-02T05:12:11.290Z,2.10
2018-11-02T05:14:40.946Z,2.27
2018-11-02T05:17:10.553Z,2.37
2018-11-02T05:19:39.788Z,2.03
2018-11-02T05:22:09.372Z,2.17
2018-11-02T05:24:38.998Z,2.07
2018-11-02T05:27:08.232Z,1.87
2018-11-02T05:29:38.140Z,1.90
2018-11-02T05:32:07.276Z,2.27
2018-11-02T05:34:37.004Z,1.77
2018-11-02T05:37:06.799Z,1.90
2018-11-02T05:39:36.390Z,1.80
2018-11-02T05:42:05.587Z,1.70
2018-11-02T05:44:35.269Z,1.60
2018-11-02T05:47:04.559Z,2.12
2018-11-02T05:49:33.493Z,1.52
2018-11-02T05:52:02.519Z,2.03
2018-11-02T05:54:31.460Z,1.60
2018-11-02T05:57:01.133Z,1.70
2018-11-02T05:59:31.018Z,1.60
2018-11-02T06:01:59.953Z,1.80
2018-11-02T06:04:29.078Z,1.50
2018-11-02T06:06:58.745Z,1.70
2018-11-02T06:09:27.981Z,2.00
2018-11-02T06:11:56.876Z,1.82
2018-11-02T06:14:26.320Z,2.05
2018-11-02T06:16:55.676Z,1.43
2018-11-02T06:19:24.869Z,1.63
2018-11-02T06:21:53.806Z,1.90
2018-11-02T06:24:22.807Z,1.50
2018-11-02T06:26:51.854Z,1.17
2018-11-02T06:29:21.658Z,1.20
2018-11-02T06:31:51.668Z,1.30
2018-11-02T06:34:20.941Z,1.27
2018-11-02T06:36:49.929Z,1.40
2018-11-02T06:39:19.575Z,1.17
2018-11-02T06:41:48.841Z,1.17
2018-11-02T06:44:18.298Z,1.07
2018-11-02T06:46:47.392Z,1.27
2018-11-02T06:49:16.506Z,1.20
2018-11-02T06:51:45.467Z,1.10
2018-11-02T06:54:14.424Z,1.30
2018-11-02T06:56:43.489Z,1.13
2018-11-02T06:59:12.474Z,1.50
2018-11-02T07:01:41.342Z,1.40
2018-11-02T07:04:11.080Z,0.90
2018-11-02T07:06:40.353Z,1.20
2018-11-02T07:09:11.131Z,2.33
2018-11-02T07:11:40.525Z,1.30
2018-11-02T07:14:09.636Z,0.97
2018-11-02T07:16:38.760Z,1.27
2018-11-02T07:19:08.125Z,1.17
2018-11-02T07:21:37.160Z,1.47
2018-11-02T07:24:06.421Z,1.33
2018-11-02T07:26:35.660Z,1.07
2018-11-02T07:29:04.597Z,1.13
2018-11-02T07:31:33.685Z,1.60
2018-11-02T07:34:02.598Z,1.57
2018-11-02T07:36:31.680Z,1.40
2018-11-02T07:39:01.485Z,1.60
2018-11-02T07:41:30.497Z,1.70
2018-11-02T07:43:59.584Z,1.20
2018-11-02T07:46:28.468Z,1.47
2018-11-02T07:48:57.521Z,1.00
2018-11-02T07:51:26.618Z,1.20
2018-11-02T07:53:55.725Z,1.33
2018-11-02T07:56:24.816Z,1.00
2018-11-02T07:58:54.490Z,1.10
2018-11-02T08:01:23.958Z,1.50
2018-11-02T08:03:53.080Z,1.03
2018-11-02T08:06:22.665Z,1.20
2018-11-02T08:08:51.930Z,1.10
2018-11-02T08:11:20.917Z,1.80
2018-11-02T08:13:50.273Z,1.10
2018-11-02T08:16:19.837Z,1.10
2018-11-02T08:18:49.507Z,1.10
2018-11-02T08:21:19.720Z,1.30
2018-11-02T08:23:49.199Z,1.20
2018-11-02T08:26:18.266Z,1.27
2018-11-02T08:28:47.237Z,1.27
2018-11-02T08:31:16.321Z,1.13
2018-11-02T08:33:45.597Z,1.30
2018-11-02T08:36:15.126Z,1.30
2018-11-02T08:38:44.535Z,0.90
2018-11-02T08:41:13.808Z,1.60
2018-11-02T08:43:42.801Z,0.83
2018-11-02T08:46:11.856Z,1.20
2018-11-02T08:48:40.794Z,0.80
2018-11-02T08:51:09.793Z,0.80
2018-11-02T08:53:39.601Z,1.27
2018-11-02T08:56:09.224Z,1.00
2018-11-02T08:58:38.488Z,0.97
2018-11-02T09:01:08.919Z,1.13
2018-11-02T09:03:38.060Z,0.80
2018-11-02T09:06:07.138Z,0.90
2018-11-02T09:08:36.768Z,0.70
2018-11-02T09:11:06.040Z,0.73
2018-11-02T09:13:35.954Z,1.05
2018-11-02T09:16:05.227Z,0.83
2018-11-02T09:18:34.322Z,0.80
2018-11-02T09:21:03.854Z,1.00
2018-11-02T09:23:33.143Z,0.88
2018-11-02T09:26:02.507Z,0.90
2018-11-02T09:28:31.773Z,0.67
2018-11-02T09:31:01.963Z,0.70
2018-11-02T09:33:31.004Z,0.80
2018-11-02T09:36:00.318Z,0.90
2018-11-02T09:38:29.591Z,0.93
2018-11-02T09:40:59.088Z,0.80
2018-11-02T09:43:28.713Z,0.80
2018-11-02T09:45:57.773Z,0.80
2018-11-02T09:48:27.035Z,0.80
2018-11-02T09:50:56.913Z,0.93
2018-11-02T09:53:26.635Z,1.30
2018-11-02T09:55:55.923Z,0.80
2018-11-02T09:58:25.834Z,1.00
2018-11-02T10:00:55.121Z,1.40
2018-11-02T10:03:24.040Z,1.00
2018-11-02T10:05:53.074Z,0.93
2018-11-02T10:08:21.918Z,0.90
2018-11-02T10:10:51.052Z,0.80
2018-11-02T10:13:20.633Z,1.20
2018-11-02T10:15:49.756Z,1.20
2018-11-02T10:18:19.527Z,0.83
2018-11-02T10:20:48.648Z,1.43
2018-11-02T10:23:18.565Z,1.07
2018-11-02T10:25:47.560Z,1.10
2018-11-02T10:28:16.898Z,1.10
2018-11-02T10:30:45.801Z,1.17
2018-11-02T10:33:14.824Z,1.13
2018-11-02T10:35:44.276Z,0.90
2018-11-02T10:38:13.457Z,0.90
2018-11-02T10:40:44.155Z,1.40
2018-11-02T10:43:13.595Z,0.80
2018-11-02T10:45:44.940Z,1.03
2018-11-02T10:48:14.077Z,1.17
2018-11-02T10:50:43.312Z,1.03
2018-11-02T10:53:13.467Z,0.80
2018-11-02T10:55:43.582Z,1.20
2018-11-02T10:58:12.780Z,0.90
2018-11-02T11:00:47.434Z,1.20
2018-11-02T11:03:16.300Z,2.85
2018-11-02T11:05:45.570Z,1.30
2018-11-02T11:08:15.356Z,1.07
2018-11-02T11:10:44.488Z,1.10
2018-11-02T11:13:14.298Z,1.20
2018-11-02T11:15:43.969Z,1.20
2018-11-02T11:18:13.354Z,1.00
2018-11-02T11:20:43.125Z,1.33
2018-11-02T11:23:12.221Z,1.30
2018-11-02T11:25:41.547Z,1.23
2018-11-02T11:28:10.830Z,1.17
2018-11-02T11:30:40.347Z,1.23
2018-11-02T11:33:09.458Z,1.10
2018-11-02T11:35:39.237Z,1.20
2018-11-02T11:38:08.361Z,1.30
2018-11-02T11:40:38.014Z,1.10
2018-11-02T11:43:07.227Z,0.90
2018-11-02T11:45:39.184Z,1.03
2018-11-02T11:48:08.264Z,0.87
2018-11-02T11:53:12.709Z,0.90
2018-11-02T11:55:41.737Z,0.70
2018-11-02T12:00:46.127Z,1.10
2018-11-02T12:03:15.192Z,1.10
2018-11-02T12:05:44.199Z,0.83
2018-11-02T12:08:13.488Z,1.33
2018-11-02T12:10:43.079Z,0.80
2018-11-02T12:13:12.312Z,1.00
2018-11-02T12:15:41.595Z,1.10
2018-11-02T12:18:10.622Z,1.10
2018-11-02T12:20:39.708Z,0.80
2018-11-02T12:23:09.289Z,1.00
2018-11-02T12:25:38.272Z,1.10
2018-11-02T12:28:07.273Z,0.90
2018-11-02T12:30:36.230Z,0.80
2018-11-02T12:33:06.169Z,0.90
2018-11-02T12:35:35.129Z,1.47
2018-11-02T12:38:04.314Z,2.03
2018-11-02T12:40:33.401Z,0.80
2018-11-02T12:43:03.330Z,0.80
2018-11-02T12:45:32.306Z,0.82
2018-11-02T12:48:01.481Z,0.67
2018-11-02T12:50:30.807Z,0.80
2018-11-02T12:53:00.447Z,1.03
2018-11-02T12:55:29.581Z,0.70
2018-11-02T12:57:58.512Z,0.70
2018-11-02T13:00:28.914Z,0.70
2018-11-02T13:02:58.287Z,2.40
2018-11-02T13:05:27.371Z,0.70
2018-11-02T13:07:57.025Z,0.63
2018-11-02T13:10:26.332Z,0.60
2018-11-02T13:12:55.327Z,0.43
2018-11-02T13:15:24.908Z,1.20
2018-11-02T13:17:54.560Z,1.10
2018-11-02T13:20:23.577Z,0.70
2018-11-02T13:22:52.446Z,0.70
2018-11-02T13:25:22.800Z,0.53
2018-11-02T13:27:52.273Z,0.43
2018-11-02T13:30:21.454Z,0.60
2018-11-02T13:32:50.604Z,0.70
2018-11-02T13:35:20.617Z,0.53
2018-11-02T13:37:50.458Z,0.50
2018-11-02T13:40:20.290Z,0.50
2018-11-02T13:42:49.339Z,0.57
2018-11-02T13:45:19.395Z,0.63
2018-11-02T13:47:49.393Z,0.53
2018-11-02T13:50:18.586Z,0.70
2018-11-02T13:52:47.844Z,0.53
2018-11-02T13:55:17.063Z,0.50
2018-11-02T13:57:46.130Z,0.60
2018-11-02T14:00:16.864Z,0.60
2018-11-02T14:02:45.964Z,0.80
2018-11-02T14:05:15.941Z,0.50
2018-11-02T14:07:45.459Z,0.63
2018-11-02T14:10:14.418Z,0.50
2018-11-02T14:12:43.939Z,0.60
2018-11-02T14:15:15.080Z,1.17
2018-11-02T14:17:44.285Z,2.13
2018-11-02T14:20:14.088Z,0.90
2018-11-02T14:22:43.073Z,0.47
2018-11-02T14:25:13.973Z,0.50
2018-11-02T14:27:43.282Z,0.53
2018-11-02T14:30:13.779Z,0.80
2018-11-02T14:32:43.053Z,0.80
2018-11-02T14:37:47.883Z,0.57
2018-11-02T14:40:17.459Z,0.60
2018-11-02T14:42:46.751Z,1.00
2018-11-02T14:45:16.118Z,0.73
2018-11-02T14:47:45.900Z,0.53
2018-11-02T14:50:14.917Z,1.63
2018-11-02T14:52:44.448Z,0.70
2018-11-02T14:55:13.464Z,0.80
2018-11-02T14:57:42.573Z,0.83
2018-11-02T15:00:12.258Z,0.60
2018-11-02T15:02:41.927Z,0.67
2018-11-02T15:05:12.216Z,0.73
2018-11-02T15:07:42.080Z,0.93
2018-11-02T15:10:11.212Z,1.00
2018-11-02T15:12:40.222Z,1.30
2018-11-02T15:15:09.633Z,0.97
2018-11-02T15:17:39.085Z,1.05
2018-11-02T15:20:10.473Z,0.83
2018-11-02T15:22:39.523Z,1.30
2018-11-02T15:25:08.788Z,0.90
2018-11-02T15:27:38.035Z,0.90
2018-11-02T15:30:08.421Z,0.80
2018-11-02T15:32:37.781Z,0.57
2018-11-02T15:35:07.009Z,1.20
2018-11-02T15:37:36.008Z,1.60
2018-11-02T15:40:05.519Z,0.90
2018-11-02T15:42:34.604Z,1.52
2018-11-02T15:45:03.910Z,0.90
2018-11-02T15:47:33.504Z,1.97
2018-11-02T15:50:02.826Z,0.77
2018-11-02T15:52:31.818Z,0.97
2018-11-02T15:55:01.087Z,1.10
2018-11-02T15:57:30.729Z,1.10
2018-11-02T15:59:59.921Z,1.57
2018-11-02T16:02:29.016Z,1.30
2018-11-02T16:04:57.945Z,1.00
2018-11-02T16:07:26.937Z,1.03
2018-11-02T16:09:55.733Z,1.10
2018-11-02T16:12:24.869Z,0.93
2018-11-02T16:14:53.892Z,0.77
2018-11-02T16:17:22.980Z,1.00
2018-11-02T16:19:52.209Z,1.20
2018-11-02T16:22:21.276Z,1.00
2018-11-02T16:24:50.270Z,0.90
2018-11-02T16:27:19.936Z,0.80
2018-11-02T16:29:48.876Z,1.10
2018-11-02T16:32:18.172Z,1.50
2018-11-02T16:34:47.182Z,2.30
2018-11-02T16:37:16.235Z,1.00
2018-11-02T16:39:45.449Z,0.80
2018-11-02T16:42:14.267Z,0.70
2018-11-02T16:44:43.503Z,0.90
2018-11-02T16:47:12.424Z,0.80
2018-11-02T16:49:41.381Z,1.37
2018-11-02T16:52:10.208Z,1.07
2018-11-02T16:54:39.571Z,1.60
2018-11-02T16:57:08.751Z,3.37
2018-11-02T16:59:37.971Z,2.77
2018-11-02T17:02:06.805Z,3.50
2018-11-02T17:04:35.943Z,2.60
2018-11-02T17:07:05.015Z,2.63
2018-11-02T17:09:34.304Z,2.52
2018-11-02T17:12:03.218Z,1.90
2018-11-02T17:14:32.305Z,1.73
2018-11-02T17:17:01.584Z,1.77
2018-11-02T17:19:30.619Z,1.43
2018-11-02T17:21:59.597Z,1.47
2018-11-02T17:24:29.077Z,1.50
2018-11-02T17:26:58.120Z,1.20
2018-11-02T17:29:27.192Z,1.30
2018-11-02T17:31:56.102Z,1.57
2018-11-02T17:34:25.190Z,1.30
2018-11-02T17:36:54.808Z,5.83
2018-11-02T17:39:24.032Z,26.23
2018-11-02T17:41:53.093Z,117.27
2018-11-02T17:44:22.370Z,75.40
2018-11-02T17:46:51.703Z,63.80
2018-11-02T17:49:21.370Z,74.23
2018-11-02T17:51:50.643Z,73.17
2018-11-02T17:54:20.181Z,32.83
2018-11-02T17:56:49.223Z,41.03
2018-11-02T17:59:19.187Z,14.70
2018-11-02T18:01:48.422Z,10.27
2018-11-02T18:04:17.652Z,6.70
2018-11-02T18:06:46.710Z,4.73
2018-11-02T18:09:15.720Z,10.67
2018-11-02T18:11:45.220Z,6.93
2018-11-02T18:14:14.194Z,4.60
2018-11-02T18:16:43.530Z,3.53
2018-11-02T18:19:13.153Z,2.67
2018-11-02T18:21:42.412Z,2.30
2018-11-02T18:24:11.424Z,2.50
2018-11-02T18:26:40.440Z,2.77
2018-11-02T18:29:15.950Z,3.03
2018-11-02T18:31:44.963Z,2.10
2018-11-02T18:34:14.256Z,1.80
2018-11-02T18:36:43.240Z,1.30
2018-11-02T18:39:14.234Z,1.70
2018-11-02T18:41:44.048Z,2.50
2018-11-02T18:44:13.539Z,3.00
2018-11-02T18:46:42.921Z,1.67
2018-11-02T18:49:12.795Z,1.80
2018-11-02T18:51:41.971Z,1.87
2018-11-02T18:54:11.042Z,2.00
2018-11-02T18:56:39.900Z,1.43
2018-11-02T18:59:10.178Z,2.00
2018-11-02T19:01:39.262Z,1.40
2018-11-02T19:04:08.334Z,1.83
2018-11-02T19:06:37.838Z,1.83
2018-11-02T19:09:09.052Z,1.90
2018-11-02T19:11:38.427Z,1.90
2018-11-02T19:14:07.299Z,1.60
2018-11-02T19:16:36.270Z,1.60
2018-11-02T19:19:05.682Z,1.63
2018-11-02T19:21:35.047Z,2.12
2018-11-02T19:24:04.772Z,1.40
2018-11-02T19:26:34.128Z,1.95
2018-11-02T19:29:03.169Z,1.80
2018-11-02T19:31:32.182Z,18.90
2018-11-02T19:34:01.228Z,16.57
2018-11-02T19:36:30.488Z,28.17
2018-11-02T19:38:59.701Z,24.97
2018-11-02T19:41:28.829Z,17.50
2018-11-02T19:43:57.973Z,19.63
2018-11-02T19:46:28.100Z,31.50
2018-11-02T19:48:57.214Z,24.70
2018-11-02T19:51:26.017Z,12.10
2018-11-02T19:53:55.316Z,10.60
2018-11-02T19:56:24.271Z,12.80
2018-11-02T19:58:53.261Z,20.97
2018-11-02T20:01:22.544Z,29.50
2018-11-02T20:03:51.554Z,17.30
2018-11-02T20:06:20.556Z,17.80
2018-11-02T20:08:49.551Z,13.00
2018-11-02T20:11:18.974Z,17.03
2018-11-02T20:13:48.148Z,23.80
2018-11-02T20:16:17.417Z,17.73
2018-11-02T20:18:46.290Z,25.03
2018-11-02T20:21:15.739Z,32.83
2018-11-02T20:23:44.706Z,26.50
2018-11-02T20:26:14.354Z,15.50
2018-11-02T20:28:43.899Z,17.33
2018-11-02T20:31:12.847Z,13.20
2018-11-02T20:33:42.010Z,14.00
2018-11-02T20:36:11.241Z,14.30
2018-11-02T20:38:40.461Z,12.60
2018-11-02T20:41:09.833Z,8.83
2018-11-02T20:43:39.341Z,7.87
2018-11-02T20:46:08.357Z,26.63
2018-11-02T20:48:37.997Z,13.47
2018-11-02T20:51:07.721Z,8.90
2018-11-02T20:53:37.567Z,3.83
2018-11-02T20:56:07.099Z,3.43
2018-11-02T20:58:36.065Z,2.37
2018-11-02T21:01:05.499Z,2.77
2018-11-02T21:03:34.702Z,2.90
2018-11-02T21:06:04.277Z,2.77
2018-11-02T21:08:33.717Z,2.77
2018-11-02T21:11:03.174Z,2.80
2018-11-02T21:13:32.279Z,3.30
2018-11-02T21:16:01.592Z,2.63
2018-11-02T21:18:31.184Z,3.03
2018-11-02T21:21:00.473Z,3.17
2018-11-02T21:23:29.516Z,3.33
2018-11-02T21:25:58.776Z,3.20
2018-11-02T21:28:27.803Z,3.00
2018-11-02T21:30:57.109Z,2.47
2018-11-02T21:33:26.348Z,2.17
2018-11-02T21:35:55.286Z,2.23
2018-11-02T21:38:24.505Z,2.30
2018-11-02T21:40:53.389Z,3.03
2018-11-02T21:43:22.278Z,2.73
2018-11-02T21:45:51.317Z,3.60
2018-11-02T21:48:20.865Z,3.70
2018-11-02T21:50:49.861Z,3.20
2018-11-02T21:53:18.917Z,2.03
2018-11-02T21:55:47.919Z,2.00
2018-11-02T21:58:17.029Z,1.70
2018-11-02T22:00:45.969Z,2.40
2018-11-02T22:03:15.445Z,1.80
2018-11-02T22:05:44.488Z,1.90
2018-11-02T22:08:13.543Z,2.43
2018-11-02T22:10:42.583Z,2.30
2018-11-02T22:13:12.143Z,2.77
2018-11-02T22:15:41.398Z,2.70
2018-11-02T22:18:10.455Z,2.90
2018-11-02T22:20:40.028Z,2.73
2018-11-02T22:23:09.000Z,3.73
2018-11-02T22:25:39.761Z,3.50
2018-11-02T22:28:08.885Z,4.10
2018-11-02T22:30:38.195Z,4.47
2018-11-02T22:33:07.377Z,4.47
2018-11-02T22:35:36.477Z,4.40
2018-11-02T22:38:05.395Z,7.00
2018-11-02T22:40:34.472Z,6.17
2018-11-02T22:43:04.109Z,5.83
2018-11-02T22:45:33.090Z,4.20
2018-11-02T22:48:07.228Z,3.47
2018-11-02T22:50:36.204Z,3.60
2018-11-02T22:53:05.257Z,4.77
2018-11-02T22:55:34.477Z,4.80
2018-11-02T22:58:03.578Z,3.87
2018-11-02T23:00:32.856Z,5.00
2018-11-02T23:03:02.109Z,3.73
2018-11-02T23:05:31.139Z,4.72
2018-11-02T23:08:00.174Z,4.30
2018-11-02T23:10:29.372Z,4.17
2018-11-02T23:12:58.345Z,3.07
2018-11-02T23:15:27.355Z,2.70
2018-11-02T23:17:56.436Z,2.20
2018-11-02T23:20:26.209Z,2.50
2018-11-02T23:22:55.959Z,2.43
2018-11-02T23:25:25.145Z,2.58
2018-11-02T23:27:54.145Z,2.30
2018-11-02T23:30:23.162Z,2.10
2018-11-02T23:32:52.747Z,2.00
2018-11-02T23:35:21.745Z,1.80
2018-11-02T23:37:50.752Z,1.70
2018-11-02T23:40:20.445Z,1.47
2018-11-02T23:42:49.353Z,1.50
2018-11-02T23:45:18.391Z,1.50
2018-11-02T23:47:52.536Z,1.70
2018-11-02T23:50:21.564Z,1.30
2018-11-02T23:52:50.553Z,1.53
2018-11-02T23:55:20.561Z,1.57
2018-11-02T23:57:49.878Z,1.80
